< < Back
Terminal Aerodrome Forecast


Current Version              Previous Versions:   1  2  3  4  5  6  7  8  9  

Terminal Aerodrome Forecast

914
FTUS42 KJAX 281720
TAFGNV
TAF
KGNV 281720Z 2818/2918 26007KT P6SM SCT030 SCT250
     FM281900 24007KT P6SM VCTS BKN050CB
     FM290100 24004KT P6SM SCT050 SCT250=



Latest METAR

011
SAUS70 KWBC 291500 RRC
MTRGNV
METAR KGNV 291453Z 00000KT 10SM CLR 31/22 A3007 RMK AO2 SLP177 T03110222
50002


USA.gov is the U.S. government's official web portal to all federal, state and local government web resources and services.